createdAt,value
2023-05-01T00:01:53.875Z,100.00
2023-05-01T00:04:22.631Z,100.00
2023-05-01T00:06:51.029Z,100.00
2023-05-01T00:09:19.565Z,100.00
2023-05-01T00:11:47.672Z,100.00
2023-05-01T00:14:16.121Z,100.00
2023-05-01T00:16:46.798Z,100.00
2023-05-01T00:19:18.503Z,100.00
2023-05-01T00:21:48.416Z,100.00
2023-05-01T00:24:17.166Z,100.00
2023-05-01T00:26:46.372Z,100.00
2023-05-01T00:29:14.527Z,100.00
2023-05-01T00:31:43.568Z,100.00
2023-05-01T00:34:13.048Z,100.00
2023-05-01T00:36:42.399Z,100.00
2023-05-01T00:39:10.552Z,100.00
2023-05-01T00:41:38.585Z,100.00
2023-05-01T00:44:06.933Z,100.00
2023-05-01T00:46:35.721Z,100.00
2023-05-01T00:49:04.071Z,100.00
2023-05-01T00:51:33.643Z,100.00
2023-05-01T00:54:02.369Z,100.00
2023-05-01T00:56:30.845Z,100.00
2023-05-01T00:58:59.016Z,100.00
2023-05-01T01:01:27.106Z,100.00
2023-05-01T01:03:55.771Z,100.00
2023-05-01T01:06:33.898Z,100.00
2023-05-01T01:09:12.520Z,100.00
2023-05-01T01:11:50.838Z,100.00
2023-05-01T01:14:22.619Z,100.00
2023-05-01T01:16:58.731Z,100.00
2023-05-01T01:20:00.491Z,100.00
2023-05-01T01:22:30.421Z,100.00
2023-05-01T01:25:41.218Z,100.00
2023-05-01T01:28:22.863Z,100.00
2023-05-01T01:31:12.296Z,100.00
2023-05-01T01:34:01.715Z,100.00
2023-05-01T01:36:47.895Z,100.00
2023-05-01T01:39:26.497Z,100.00
2023-05-01T01:41:57.771Z,100.00
2023-05-01T01:44:34.946Z,100.00
2023-05-01T01:47:06.182Z,100.00
2023-05-01T01:49:39.705Z,100.00
2023-05-01T01:52:10.846Z,100.00
2023-05-01T01:54:43.486Z,100.00
2023-05-01T01:57:14.350Z,100.00
2023-05-01T01:59:43.994Z,100.00
2023-05-01T02:02:12.875Z,100.00
2023-05-01T02:04:44.280Z,100.00
2023-05-01T02:07:15.458Z,100.00
2023-05-01T02:09:44.983Z,100.00
2023-05-01T02:12:15.220Z,100.00
2023-05-01T02:14:44.149Z,100.00
2023-05-01T02:17:12.912Z,100.00
2023-05-01T02:19:44.475Z,100.00
2023-05-01T02:22:13.629Z,100.00
2023-05-01T02:24:45.254Z,100.00
2023-05-01T02:27:17.780Z,100.00
2023-05-01T02:29:45.967Z,100.00
2023-05-01T02:32:14.641Z,100.00
2023-05-01T02:34:44.221Z,100.00
2023-05-01T02:37:13.626Z,100.00
2023-05-01T02:39:41.956Z,100.00
2023-05-01T02:42:12.028Z,100.00
2023-05-01T02:44:45.356Z,100.00
2023-05-01T02:47:19.183Z,100.00
2023-05-01T02:49:50.874Z,100.00
2023-05-01T02:52:20.864Z,100.00
2023-05-01T02:54:52.861Z,100.00
2023-05-01T02:57:21.236Z,100.00
2023-05-01T02:59:49.298Z,100.00
2023-05-01T03:02:17.285Z,100.00
2023-05-01T03:04:45.350Z,100.00
2023-05-01T03:07:15.568Z,100.00
2023-05-01T03:09:43.540Z,100.00
2023-05-01T03:12:11.624Z,100.00
2023-05-01T03:14:40.250Z,100.00
2023-05-01T03:17:08.391Z,100.00
2023-05-01T03:19:37.472Z,100.00
2023-05-01T03:22:05.609Z,100.00
2023-05-01T03:24:35.184Z,100.00
2023-05-01T03:27:03.523Z,100.00
2023-05-01T03:29:31.716Z,100.00
2023-05-01T03:31:59.846Z,100.00
2023-05-01T03:34:28.075Z,100.00
2023-05-01T03:36:56.806Z,100.00
2023-05-01T03:39:26.127Z,100.00
2023-05-01T03:41:55.506Z,100.00
2023-05-01T03:44:23.860Z,100.00
2023-05-01T03:46:52.578Z,100.00
2023-05-01T03:49:20.748Z,100.00
2023-05-01T03:51:49.063Z,100.00
2023-05-01T03:54:17.193Z,100.00
2023-05-01T03:56:45.427Z,100.00
2023-05-01T03:59:15.083Z,100.00
2023-05-01T04:01:44.307Z,100.00
2023-05-01T04:04:12.715Z,100.00
2023-05-01T04:06:41.527Z,100.00
2023-05-01T04:09:09.569Z,100.00
2023-05-01T04:11:37.777Z,100.00
2023-05-01T04:14:05.824Z,100.00
2023-05-01T04:16:35.805Z,100.00
2023-05-01T04:19:04.032Z,100.00
2023-05-01T04:21:32.155Z,100.00
2023-05-01T04:24:00.284Z,100.00
2023-05-01T04:26:28.380Z,100.00
2023-05-01T04:28:56.661Z,100.00
2023-05-01T04:31:25.008Z,100.00
2023-05-01T04:33:54.752Z,100.00
2023-05-01T04:36:22.825Z,100.00
2023-05-01T04:38:50.928Z,100.00
2023-05-01T04:41:19.532Z,100.00
2023-05-01T04:43:47.710Z,100.00
2023-05-01T04:46:16.571Z,100.00
2023-05-01T04:48:44.820Z,100.00
2023-05-01T04:51:14.280Z,100.00
2023-05-01T04:53:42.358Z,100.00
2023-05-01T04:56:10.633Z,100.00
2023-05-01T04:58:38.755Z,100.00
2023-05-01T05:01:06.885Z,100.00
2023-05-01T05:03:35.620Z,100.00
2023-05-01T05:06:03.776Z,100.00
2023-05-01T05:08:33.303Z,100.00
2023-05-01T05:11:04.646Z,100.00
2023-05-01T05:13:32.732Z,100.00
2023-05-01T05:16:01.083Z,100.00
2023-05-01T05:18:29.240Z,100.00
2023-05-01T05:20:57.212Z,100.00
2023-05-01T05:23:25.312Z,100.00
2023-05-01T05:25:55.250Z,100.00
2023-05-01T05:28:24.053Z,100.00
2023-05-01T05:30:52.360Z,100.00
2023-05-01T05:33:20.443Z,100.00
2023-05-01T05:35:49.155Z,100.00
2023-05-01T05:38:17.297Z,100.00
2023-05-01T05:40:45.437Z,100.00
2023-05-01T05:43:14.956Z,100.00
2023-05-01T05:45:43.119Z,100.00
2023-05-01T05:48:11.530Z,100.00
2023-05-01T05:50:40.376Z,100.00
2023-05-01T05:53:10.056Z,100.00
2023-05-01T05:55:38.269Z,100.00
2023-05-01T05:58:06.844Z,100.00
2023-05-01T06:00:36.320Z,100.00
2023-05-01T06:03:04.537Z,100.00
2023-05-01T06:05:32.931Z,100.00
2023-05-01T06:08:00.978Z,100.00
2023-05-01T06:10:28.940Z,100.00
2023-05-01T06:13:07.476Z,100.00
2023-05-01T06:15:45.126Z,100.00
2023-05-01T06:18:13.531Z,100.00
2023-05-01T06:20:42.786Z,100.00
2023-05-01T06:23:11.428Z,100.00
2023-05-01T06:25:39.974Z,100.00
2023-05-01T06:28:11.164Z,100.00
2023-05-01T06:30:39.598Z,100.00
2023-05-01T06:33:09.983Z,100.00
2023-05-01T06:35:40.350Z,100.00
2023-05-01T06:38:08.723Z,100.00
2023-05-01T06:40:37.013Z,100.00
2023-05-01T06:43:05.968Z,100.00
2023-05-01T06:45:34.158Z,100.00
2023-05-01T06:48:02.482Z,100.00
2023-05-01T06:50:32.161Z,100.00
2023-05-01T06:53:02.743Z,100.00
2023-05-01T06:55:32.733Z,100.00
2023-05-01T06:58:06.919Z,100.00
2023-05-01T07:00:40.795Z,100.00
2023-05-01T07:03:08.996Z,100.00
2023-05-01T07:05:40.536Z,100.00
2023-05-01T07:08:09.767Z,100.00
2023-05-01T07:10:39.336Z,100.00
2023-05-01T07:13:09.465Z,87.04
2023-05-01T07:15:37.789Z,81.48
2023-05-01T07:18:06.954Z,77.32
2023-05-01T07:20:35.724Z,74.21
2023-05-01T07:23:07.437Z,72.12
2023-05-01T07:25:37.754Z,71.63
2023-05-01T07:28:08.137Z,71.87
2023-05-01T07:30:37.962Z,69.85
2023-05-01T07:33:06.723Z,68.89
2023-05-01T07:35:35.789Z,69.79
2023-05-01T07:38:05.288Z,68.59
2023-05-01T07:40:35.036Z,68.78
2023-05-01T07:43:03.211Z,67.41
2023-05-01T07:45:31.475Z,66.53
2023-05-01T07:48:00.286Z,66.75
2023-05-01T07:50:28.963Z,65.67
2023-05-01T07:52:57.497Z,65.10
2023-05-01T07:55:27.058Z,64.43
2023-05-01T07:57:56.231Z,64.37
2023-05-01T08:00:24.641Z,65.67
2023-05-01T08:02:54.047Z,63.33
2023-05-01T08:05:22.325Z,64.36
2023-05-01T08:07:50.632Z,64.29
2023-05-01T08:10:18.703Z,62.61
2023-05-01T08:12:48.139Z,62.54
2023-05-01T08:15:17.464Z,62.65
2023-05-01T08:17:46.975Z,62.47
2023-05-01T08:20:17.717Z,63.02
2023-05-01T08:22:45.759Z,62.89
2023-05-01T08:25:14.243Z,61.99
2023-05-01T08:27:42.469Z,59.80
2023-05-01T08:30:12.659Z,61.57
2023-05-01T08:32:40.799Z,60.60
2023-05-01T08:35:09.925Z,60.23
2023-05-01T08:37:38.181Z,60.55
2023-05-01T08:40:09.087Z,56.71
2023-05-01T08:42:39.094Z,57.95
2023-05-01T08:45:10.292Z,56.79
2023-05-01T08:47:43.034Z,56.88
2023-05-01T08:50:12.643Z,56.22
2023-05-01T08:52:43.588Z,56.86
2023-05-01T08:55:15.664Z,57.98
2023-05-01T08:57:46.770Z,56.65
2023-05-01T09:00:22.067Z,54.74
2023-05-01T09:02:52.752Z,53.73
2023-05-01T09:05:22.129Z,55.26
2023-05-01T09:07:50.654Z,54.08
2023-05-01T09:10:19.532Z,55.52
2023-05-01T09:12:54.084Z,55.31
2023-05-01T09:15:25.688Z,53.96
2023-05-01T09:17:56.005Z,55.28
2023-05-01T09:20:24.553Z,53.84
2023-05-01T09:22:53.033Z,53.79
2023-05-01T09:25:21.577Z,53.49
2023-05-01T09:27:50.224Z,56.20
2023-05-01T09:30:35.268Z,55.93
2023-05-01T09:33:10.090Z,56.70
2023-05-01T09:35:55.027Z,53.88
2023-05-01T09:38:25.178Z,54.99
2023-05-01T09:40:57.032Z,57.10
2023-05-01T09:43:29.364Z,58.17
2023-05-01T09:46:05.447Z,56.77
2023-05-01T09:48:36.173Z,58.04
2023-05-01T09:51:21.953Z,58.13
2023-05-01T09:53:50.759Z,55.71
2023-05-01T09:56:19.222Z,54.87
2023-05-01T09:58:47.815Z,55.69
2023-05-01T10:01:16.705Z,54.17
2023-05-01T10:03:47.197Z,52.69
2023-05-01T10:06:29.764Z,51.45
2023-05-01T10:08:57.904Z,51.59
2023-05-01T10:11:27.167Z,50.90
2023-05-01T10:14:13.216Z,51.09
2023-05-01T10:16:41.395Z,49.60
2023-05-01T10:19:11.817Z,49.50
2023-05-01T10:21:40.222Z,50.40
2023-05-01T10:24:10.194Z,50.56
2023-05-01T10:26:38.554Z,49.74
2023-05-01T10:29:06.732Z,48.39
2023-05-01T10:31:35.880Z,47.50
2023-05-01T10:34:04.692Z,47.03
2023-05-01T10:36:40.374Z,48.76
2023-05-01T10:39:08.534Z,46.95
2023-05-01T10:42:04.867Z,47.91
2023-05-01T10:44:35.128Z,47.03
2023-05-01T10:47:37.884Z,46.61
2023-05-01T10:50:08.269Z,46.82
2023-05-01T10:53:14.661Z,48.27
2023-05-01T10:55:46.237Z,46.92
2023-05-01T10:58:15.958Z,47.71
2023-05-01T11:00:43.999Z,47.60
2023-05-01T11:03:39.037Z,45.41
2023-05-01T11:06:08.498Z,48.41
2023-05-01T11:08:38.512Z,48.20
2023-05-01T11:11:43.746Z,49.20
2023-05-01T11:14:13.474Z,47.37
2023-05-01T11:16:42.899Z,48.83
2023-05-01T11:19:12.981Z,47.71
2023-05-01T11:21:42.183Z,48.39
2023-05-01T11:24:11.521Z,46.47
2023-05-01T11:26:41.218Z,43.69
2023-05-01T11:29:10.421Z,46.34
2023-05-01T11:31:41.568Z,46.13
2023-05-01T11:34:10.135Z,46.22
2023-05-01T11:36:50.880Z,46.01
2023-05-01T11:39:20.434Z,46.36
2023-05-01T11:41:48.995Z,50.52
2023-05-01T11:44:18.984Z,51.99
2023-05-01T11:46:58.146Z,52.52
2023-05-01T11:49:28.659Z,54.13
2023-05-01T11:51:59.671Z,53.05
2023-05-01T11:54:28.224Z,53.45
2023-05-01T11:57:01.000Z,52.49
2023-05-01T11:59:29.591Z,50.99
2023-05-01T12:01:59.412Z,51.77
2023-05-01T12:04:32.295Z,52.70
2023-05-01T12:07:00.811Z,52.22
2023-05-01T12:09:30.025Z,53.09
2023-05-01T12:12:02.062Z,53.51
2023-05-01T12:14:30.685Z,51.77
2023-05-01T12:17:02.894Z,52.06
2023-05-01T12:19:31.101Z,52.28
2023-05-01T12:22:08.906Z,52.42
2023-05-01T12:24:37.756Z,50.35
2023-05-01T12:27:07.284Z,50.00
2023-05-01T12:29:41.854Z,50.52
2023-05-01T12:32:11.805Z,50.73
2023-05-01T12:34:41.040Z,50.28
2023-05-01T12:37:09.474Z,51.01
2023-05-01T12:39:40.532Z,50.47
2023-05-01T12:42:14.436Z,49.83
2023-05-01T12:44:44.154Z,49.97
2023-05-01T12:47:14.317Z,49.07
2023-05-01T12:49:42.592Z,49.41
2023-05-01T12:52:11.055Z,48.56
2023-05-01T12:54:44.988Z,48.22
2023-05-01T12:57:15.071Z,47.59
2023-05-01T12:59:45.331Z,47.91
2023-05-01T13:02:16.731Z,46.31
2023-05-01T13:04:46.554Z,46.95
2023-05-01T13:07:16.247Z,46.04
2023-05-01T13:09:54.088Z,45.10
2023-05-01T13:12:22.968Z,42.46
2023-05-01T13:14:51.850Z,43.11
2023-05-01T13:17:26.973Z,46.01
2023-05-01T13:19:57.095Z,44.57
2023-05-01T13:22:33.719Z,44.32
2023-05-01T13:25:03.944Z,44.20
2023-05-01T13:27:32.469Z,44.14
2023-05-01T13:30:02.430Z,44.74
2023-05-01T13:32:34.697Z,45.57
2023-05-01T13:35:03.505Z,45.02
2023-05-01T13:37:32.526Z,42.43
2023-05-01T13:40:00.811Z,43.30
2023-05-01T13:42:29.186Z,43.40
2023-05-01T13:44:58.849Z,43.80
2023-05-01T13:47:27.873Z,39.75
2023-05-01T13:49:57.921Z,41.88
2023-05-01T13:52:26.339Z,43.08
2023-05-01T13:54:57.503Z,43.25
2023-05-01T13:57:26.476Z,43.64
2023-05-01T13:59:55.402Z,43.23
2023-05-01T14:02:28.258Z,42.83
2023-05-01T14:05:00.152Z,42.98
2023-05-01T14:07:29.505Z,41.77
2023-05-01T14:09:59.618Z,42.35
2023-05-01T14:12:30.215Z,40.74
2023-05-01T14:14:59.668Z,41.03
2023-05-01T14:17:32.012Z,41.88
2023-05-01T14:20:02.404Z,42.01
2023-05-01T14:22:31.164Z,42.06
2023-05-01T14:25:00.647Z,41.49
2023-05-01T14:27:29.419Z,39.22
2023-05-01T14:29:57.561Z,38.99
2023-05-01T14:32:26.488Z,41.14
2023-05-01T14:34:54.961Z,41.42
2023-05-01T14:37:24.669Z,42.43
2023-05-01T14:39:52.797Z,42.63
2023-05-01T14:42:20.958Z,43.01
2023-05-01T14:44:49.193Z,41.49
2023-05-01T14:47:22.130Z,41.80
2023-05-01T14:49:53.478Z,41.27
2023-05-01T14:52:22.527Z,42.74
2023-05-01T14:54:53.943Z,42.48
2023-05-01T14:57:22.060Z,42.66
2023-05-01T14:59:50.207Z,41.06
2023-05-01T15:02:18.575Z,39.93
2023-05-01T15:04:46.994Z,40.13
2023-05-01T15:07:15.333Z,40.78
2023-05-01T15:09:43.918Z,39.60
2023-05-01T15:12:13.644Z,39.30
2023-05-01T15:14:41.800Z,40.31
2023-05-01T15:17:10.773Z,40.80
2023-05-01T15:19:39.045Z,41.41
2023-05-01T15:22:07.216Z,42.25
2023-05-01T15:24:35.281Z,42.73
2023-05-01T15:27:04.264Z,42.39
2023-05-01T15:29:33.815Z,43.92
2023-05-01T15:32:12.010Z,42.61
2023-05-01T15:34:41.371Z,42.46
2023-05-01T15:37:09.683Z,41.32
2023-05-01T15:39:38.273Z,41.29
2023-05-01T15:42:06.484Z,41.42
2023-05-01T15:44:35.948Z,42.15
2023-05-01T15:47:04.315Z,41.44
2023-05-01T15:49:32.732Z,41.50
2023-05-01T15:52:00.882Z,41.57
2023-05-01T15:54:29.380Z,41.51
2023-05-01T15:56:58.555Z,41.11
2023-05-01T15:59:27.802Z,40.35
2023-05-01T16:01:57.521Z,41.30
2023-05-01T16:04:26.137Z,40.60
2023-05-01T16:06:55.051Z,40.17
2023-05-01T16:09:30.497Z,40.80
2023-05-01T16:11:59.602Z,40.50
2023-05-01T16:14:45.246Z,40.76
2023-05-01T16:17:14.942Z,40.97
2023-05-01T16:19:43.258Z,40.62
2023-05-01T16:22:11.727Z,41.28
2023-05-01T16:24:40.124Z,41.21
2023-05-01T16:27:08.486Z,41.72
2023-05-01T16:29:37.851Z,42.08
2023-05-01T16:32:07.040Z,42.63
2023-05-01T16:34:39.869Z,43.17
2023-05-01T16:37:08.131Z,43.61
2023-05-01T16:39:40.912Z,44.01
2023-05-01T16:42:13.828Z,44.53
2023-05-01T16:44:42.058Z,45.37
2023-05-01T16:47:13.124Z,47.31
2023-05-01T16:49:43.257Z,49.36
2023-05-01T16:52:14.321Z,50.37
2023-05-01T16:54:42.545Z,51.69
2023-05-01T16:57:11.518Z,52.95
2023-05-01T16:59:39.767Z,54.07
2023-05-01T17:02:08.392Z,54.95
2023-05-01T17:04:36.808Z,55.63
2023-05-01T17:07:08.046Z,56.14
2023-05-01T17:09:36.624Z,56.57
2023-05-01T17:12:06.375Z,57.28
2023-05-01T17:14:34.579Z,57.62
2023-05-01T17:17:04.556Z,58.38
2023-05-01T17:19:35.550Z,58.80
2023-05-01T17:22:03.834Z,59.45
2023-05-01T17:24:51.996Z,60.45
2023-05-01T17:27:20.575Z,60.61
2023-05-01T17:29:48.859Z,61.32
2023-05-01T17:32:33.041Z,62.11
2023-05-01T17:35:05.437Z,62.30
2023-05-01T17:37:33.852Z,63.26
2023-05-01T17:40:05.111Z,63.84
2023-05-01T17:42:34.647Z,63.87
2023-05-01T17:45:03.629Z,63.88
2023-05-01T17:47:31.887Z,64.52
2023-05-01T17:50:00.924Z,64.88
2023-05-01T17:52:29.399Z,65.64
2023-05-01T17:54:58.450Z,66.15
2023-05-01T17:57:28.435Z,66.62
2023-05-01T17:59:58.292Z,67.29
2023-05-01T18:02:27.694Z,67.74
2023-05-01T18:04:56.496Z,67.90
2023-05-01T18:07:25.050Z,67.44
2023-05-01T18:09:53.463Z,67.97
2023-05-01T18:12:21.642Z,68.17
2023-05-01T18:14:53.576Z,68.39
2023-05-01T18:17:25.390Z,68.59
2023-05-01T18:19:53.491Z,68.90
2023-05-01T18:22:21.551Z,69.49
2023-05-01T18:24:49.636Z,69.96
2023-05-01T18:27:18.908Z,70.72
2023-05-01T18:29:47.014Z,71.06
2023-05-01T18:32:17.385Z,71.77
2023-05-01T18:34:46.093Z,72.20
2023-05-01T18:37:14.174Z,72.75
2023-05-01T18:39:42.307Z,73.56
2023-05-01T18:42:10.756Z,73.80
2023-05-01T18:44:38.851Z,74.86
2023-05-01T18:47:07.064Z,75.39
2023-05-01T18:49:36.680Z,76.50
2023-05-01T18:52:04.942Z,77.16
2023-05-01T18:54:33.216Z,77.60
2023-05-01T18:57:01.831Z,78.11
2023-05-01T18:59:31.126Z,78.90
2023-05-01T19:01:59.409Z,79.20
2023-05-01T19:04:27.824Z,79.41
2023-05-01T19:06:57.589Z,80.42
2023-05-01T19:09:27.437Z,80.22
2023-05-01T19:11:55.616Z,79.96
2023-05-01T19:14:23.819Z,80.05
2023-05-01T19:16:51.879Z,79.63
2023-05-01T19:19:20.379Z,80.84
2023-05-01T19:21:49.027Z,81.37
2023-05-01T19:24:18.493Z,81.28
2023-05-01T19:26:46.685Z,80.81
2023-05-01T19:29:15.280Z,81.88
2023-05-01T19:31:43.440Z,82.62
2023-05-01T19:34:11.620Z,82.62
2023-05-01T19:36:39.947Z,83.77
2023-05-01T19:39:08.074Z,83.98
2023-05-01T19:41:37.696Z,84.75
2023-05-01T19:44:06.909Z,84.47
2023-05-01T19:46:35.168Z,85.48
2023-05-01T19:49:03.536Z,86.26
2023-05-01T19:51:31.962Z,87.02
2023-05-01T19:54:04.817Z,88.45
2023-05-01T19:56:33.638Z,88.59
2023-05-01T19:59:03.610Z,89.27
2023-05-01T20:01:32.646Z,90.22
2023-05-01T20:04:00.968Z,91.18
2023-05-01T20:06:29.889Z,92.41
2023-05-01T20:08:58.366Z,93.22
2023-05-01T20:11:32.554Z,92.99
2023-05-01T20:14:03.785Z,93.72
2023-05-01T20:16:32.322Z,94.86
2023-05-01T20:19:02.081Z,94.79
2023-05-01T20:21:30.802Z,95.44
2023-05-01T20:23:59.741Z,95.54
2023-05-01T20:26:28.223Z,95.80
2023-05-01T20:28:57.287Z,95.80
2023-05-01T20:31:29.346Z,95.57
2023-05-01T20:33:57.993Z,95.57
2023-05-01T20:36:26.657Z,96.35
2023-05-01T20:38:57.993Z,96.38
2023-05-01T20:41:26.518Z,96.99
2023-05-01T20:43:56.881Z,97.52
2023-05-01T20:46:27.797Z,96.07
2023-05-01T20:48:56.147Z,96.63
2023-05-01T20:51:27.311Z,98.48
2023-05-01T20:53:55.803Z,100.00
2023-05-01T20:56:23.999Z,100.00
2023-05-01T20:58:52.322Z,100.00
2023-05-01T21:01:20.623Z,100.00
2023-05-01T21:03:50.326Z,100.00
2023-05-01T21:06:18.574Z,100.00
2023-05-01T21:08:48.521Z,100.00
2023-05-01T21:11:16.715Z,100.00
2023-05-01T21:13:45.040Z,100.00
2023-05-01T21:16:16.082Z,100.00
2023-05-01T21:18:44.380Z,100.00
2023-05-01T21:21:15.197Z,100.00
2023-05-01T21:23:49.549Z,100.00
2023-05-01T21:26:19.421Z,100.00
2023-05-01T21:28:47.878Z,100.00
2023-05-01T21:31:17.294Z,100.00
2023-05-01T21:33:46.747Z,100.00
2023-05-01T21:36:19.188Z,100.00
2023-05-01T21:38:47.608Z,100.00
2023-05-01T21:41:16.377Z,100.00
2023-05-01T21:43:44.612Z,100.00
2023-05-01T21:46:17.339Z,100.00
2023-05-01T21:48:50.608Z,100.00
2023-05-01T21:51:20.214Z,100.00
2023-05-01T21:53:48.292Z,100.00
2023-05-01T21:56:16.597Z,100.00
2023-05-01T21:58:44.813Z,100.00
2023-05-01T22:01:14.630Z,100.00
2023-05-01T22:03:44.611Z,100.00
2023-05-01T22:06:12.988Z,100.00
2023-05-01T22:08:42.938Z,100.00
2023-05-01T22:11:11.940Z,100.00
2023-05-01T22:13:40.042Z,100.00
2023-05-01T22:16:09.043Z,100.00
2023-05-01T22:18:37.187Z,100.00
2023-05-01T22:21:06.098Z,100.00
2023-05-01T22:23:34.238Z,100.00
2023-05-01T22:26:03.927Z,100.00
2023-05-01T22:28:32.260Z,100.00
2023-05-01T22:31:00.446Z,100.00
2023-05-01T22:33:28.803Z,100.00
2023-05-01T22:35:57.066Z,100.00
2023-05-01T22:38:25.472Z,100.00
2023-05-01T22:40:53.652Z,100.00
2023-05-01T22:43:23.892Z,100.00
2023-05-01T22:45:52.070Z,100.00
2023-05-01T22:48:20.402Z,100.00
2023-05-01T22:50:48.539Z,100.00
2023-05-01T22:53:16.845Z,100.00
2023-05-01T22:55:44.922Z,100.00
2023-05-01T22:58:12.875Z,100.00
2023-05-01T23:00:42.543Z,100.00
2023-05-01T23:03:10.981Z,100.00
2023-05-01T23:05:39.710Z,100.00
2023-05-01T23:08:08.104Z,100.00
2023-05-01T23:10:41.448Z,100.00
2023-05-01T23:13:16.929Z,100.00
2023-05-01T23:15:49.967Z,100.00
2023-05-01T23:18:23.280Z,100.00
2023-05-01T23:20:52.472Z,100.00
2023-05-01T23:23:22.198Z,100.00
2023-05-01T23:25:51.259Z,100.00
2023-05-01T23:28:23.853Z,100.00
2023-05-01T23:30:56.120Z,100.00
2023-05-01T23:33:26.217Z,100.00
2023-05-01T23:35:54.527Z,100.00
2023-05-01T23:38:22.659Z,100.00
2023-05-01T23:40:51.969Z,100.00
2023-05-01T23:43:20.653Z,100.00
2023-05-01T23:45:48.814Z,100.00
2023-05-01T23:48:18.826Z,100.00
2023-05-01T23:50:47.046Z,100.00
2023-05-01T23:53:15.442Z,100.00
2023-05-01T23:55:45.294Z,100.00
2023-05-01T23:58:15.168Z,100.00
